sensor_id;sensor_type;location;lat;lon;timestamp;P1;durP1;ratioP1;P2;durP2;ratioP2
13202;SDS011;6666;51.626;7.530;2022-11-15T00:00:27;9.15;;;5.30;;
13202;SDS011;6666;51.626;7.530;2022-11-15T00:03:15;10.18;;;5.45;;
13202;SDS011;6666;51.626;7.530;2022-11-15T00:06:02;10.18;;;5.07;;
13202;SDS011;6666;51.626;7.530;2022-11-15T00:08:51;8.23;;;5.07;;
13202;SDS011;6666;51.626;7.530;2022-11-15T00:11:38;8.00;;;5.10;;
13202;SDS011;6666;51.626;7.530;2022-11-15T00:14:26;7.15;;;4.88;;
13202;SDS011;6666;51.626;7.530;2022-11-15T00:17:13;10.68;;;4.70;;
13202;SDS011;6666;51.626;7.530;2022-11-15T00:19:59;8.05;;;5.00;;
13202;SDS011;6666;51.626;7.530;2022-11-15T00:22:46;8.48;;;5.20;;
13202;SDS011;6666;51.626;7.530;2022-11-15T00:25:34;11.45;;;4.80;;
13202;SDS011;6666;51.626;7.530;2022-11-15T00:28:20;10.95;;;5.32;;
13202;SDS011;6666;51.626;7.530;2022-11-15T00:31:10;6.90;;;4.70;;
13202;SDS011;6666;51.626;7.530;2022-11-15T00:33:58;7.93;;;5.10;;
13202;SDS011;6666;51.626;7.530;2022-11-15T00:36:45;7.50;;;4.60;;
13202;SDS011;6666;51.626;7.530;2022-11-15T00:39:32;8.00;;;4.60;;
13202;SDS011;6666;51.626;7.530;2022-11-15T00:42:20;8.73;;;4.80;;
13202;SDS011;6666;51.626;7.530;2022-11-15T00:45:08;10.45;;;5.10;;
13202;SDS011;6666;51.626;7.530;2022-11-15T00:47:55;6.47;;;4.47;;
13202;SDS011;6666;51.626;7.530;2022-11-15T00:50:43;7.10;;;4.40;;
13202;SDS011;6666;51.626;7.530;2022-11-15T00:53:30;9.70;;;4.87;;
13202;SDS011;6666;51.626;7.530;2022-11-15T00:56:18;9.50;;;4.63;;
13202;SDS011;6666;51.626;7.530;2022-11-15T00:59:06;9.27;;;4.88;;
13202;SDS011;6666;51.626;7.530;2022-11-15T01:01:53;9.27;;;4.70;;
13202;SDS011;6666;51.626;7.530;2022-11-15T01:04:40;7.53;;;4.82;;
13202;SDS011;6666;51.626;7.530;2022-11-15T01:07:27;6.67;;;4.20;;
13202;SDS011;6666;51.626;7.530;2022-11-15T01:10:14;10.20;;;4.20;;
13202;SDS011;6666;51.626;7.530;2022-11-15T01:13:00;8.20;;;4.60;;
13202;SDS011;6666;51.626;7.530;2022-11-15T01:15:49;9.00;;;4.50;;
13202;SDS011;6666;51.626;7.530;2022-11-15T01:18:36;10.00;;;4.70;;
13202;SDS011;6666;51.626;7.530;2022-11-15T01:21:22;8.40;;;4.47;;
13202;SDS011;6666;51.626;7.530;2022-11-15T01:24:10;6.18;;;4.38;;
13202;SDS011;6666;51.626;7.530;2022-11-15T01:26:58;7.10;;;4.18;;
13202;SDS011;6666;51.626;7.530;2022-11-15T01:29:45;8.63;;;4.00;;
13202;SDS011;6666;51.626;7.530;2022-11-15T01:32:33;7.10;;;3.90;;
13202;SDS011;6666;51.626;7.530;2022-11-15T01:35:20;8.73;;;4.00;;
13202;SDS011;6666;51.626;7.530;2022-11-15T01:38:07;5.30;;;3.95;;
13202;SDS011;6666;51.626;7.530;2022-11-15T01:40:53;5.90;;;4.28;;
13202;SDS011;6666;51.626;7.530;2022-11-15T01:43:40;8.10;;;4.20;;
13202;SDS011;6666;51.626;7.530;2022-11-15T01:46:28;6.60;;;4.25;;
13202;SDS011;6666;51.626;7.530;2022-11-15T01:49:19;8.88;;;4.10;;
13202;SDS011;6666;51.626;7.530;2022-11-15T01:52:10;7.65;;;4.10;;
13202;SDS011;6666;51.626;7.530;2022-11-15T01:55:02;8.90;;;4.75;;
13202;SDS011;6666;51.626;7.530;2022-11-15T01:57:52;5.23;;;3.90;;
13202;SDS011;6666;51.626;7.530;2022-11-15T02:00:41;9.30;;;4.20;;
13202;SDS011;6666;51.626;7.530;2022-11-15T02:03:31;7.00;;;3.90;;
13202;SDS011;6666;51.626;7.530;2022-11-15T02:06:23;8.50;;;4.32;;
13202;SDS011;6666;51.626;7.530;2022-11-15T02:09:11;6.63;;;4.35;;
13202;SDS011;6666;51.626;7.530;2022-11-15T02:11:58;10.30;;;4.60;;
13202;SDS011;6666;51.626;7.530;2022-11-15T02:14:46;7.30;;;4.22;;
13202;SDS011;6666;51.626;7.530;2022-11-15T02:17:50;7.20;;;3.87;;
13202;SDS011;6666;51.626;7.530;2022-11-15T02:20:50;6.55;;;4.20;;
13202;SDS011;6666;51.626;7.530;2022-11-15T02:30:33;7.72;;;4.20;;
13202;SDS011;6666;51.626;7.530;2022-11-15T02:33:26;6.65;;;3.70;;
13202;SDS011;6666;51.626;7.530;2022-11-15T02:36:22;5.65;;;4.00;;
13202;SDS011;6666;51.626;7.530;2022-11-15T02:39:20;5.07;;;3.90;;
13202;SDS011;6666;51.626;7.530;2022-11-15T02:42:14;5.25;;;3.70;;
13202;SDS011;6666;51.626;7.530;2022-11-15T02:45:22;7.22;;;3.90;;
13202;SDS011;6666;51.626;7.530;2022-11-15T02:48:14;8.15;;;4.13;;
13202;SDS011;6666;51.626;7.530;2022-11-15T02:51:02;5.97;;;3.90;;
13202;SDS011;6666;51.626;7.530;2022-11-15T02:53:50;9.38;;;4.00;;
13202;SDS011;6666;51.626;7.530;2022-11-15T02:56:37;6.35;;;3.45;;
13202;SDS011;6666;51.626;7.530;2022-11-15T02:59:37;9.68;;;4.40;;
13202;SDS011;6666;51.626;7.530;2022-11-15T03:02:42;6.38;;;3.90;;
13202;SDS011;6666;51.626;7.530;2022-11-15T03:05:53;8.67;;;4.10;;
13202;SDS011;6666;51.626;7.530;2022-11-15T03:08:48;5.15;;;4.00;;
13202;SDS011;6666;51.626;7.530;2022-11-15T03:11:43;5.70;;;3.83;;
13202;SDS011;6666;51.626;7.530;2022-11-15T03:14:34;6.18;;;3.90;;
13202;SDS011;6666;51.626;7.530;2022-11-15T03:17:27;8.20;;;4.10;;
13202;SDS011;6666;51.626;7.530;2022-11-15T03:20:19;5.70;;;3.90;;
13202;SDS011;6666;51.626;7.530;2022-11-15T03:23:08;9.23;;;4.30;;
13202;SDS011;6666;51.626;7.530;2022-11-15T03:25:56;5.95;;;4.10;;
13202;SDS011;6666;51.626;7.530;2022-11-15T03:28:46;8.82;;;4.75;;
13202;SDS011;6666;51.626;7.530;2022-11-15T03:31:36;11.30;;;4.67;;
13202;SDS011;6666;51.626;7.530;2022-11-15T03:34:37;9.77;;;4.85;;
13202;SDS011;6666;51.626;7.530;2022-11-15T03:37:29;8.40;;;5.30;;
13202;SDS011;6666;51.626;7.530;2022-11-15T03:40:22;8.13;;;4.57;;
13202;SDS011;6666;51.626;7.530;2022-11-15T03:43:15;6.10;;;4.25;;
13202;SDS011;6666;51.626;7.530;2022-11-15T03:46:11;6.60;;;3.93;;
13202;SDS011;6666;51.626;7.530;2022-11-15T03:49:03;7.85;;;4.47;;
13202;SDS011;6666;51.626;7.530;2022-11-15T03:51:52;9.20;;;4.60;;
13202;SDS011;6666;51.626;7.530;2022-11-15T03:54:49;5.72;;;3.90;;
13202;SDS011;6666;51.626;7.530;2022-11-15T03:57:37;7.70;;;4.80;;
13202;SDS011;6666;51.626;7.530;2022-11-15T04:00:25;9.90;;;4.60;;
13202;SDS011;6666;51.626;7.530;2022-11-15T04:03:11;7.90;;;4.40;;
13202;SDS011;6666;51.626;7.530;2022-11-15T04:05:58;7.28;;;5.00;;
13202;SDS011;6666;51.626;7.530;2022-11-15T04:08:45;8.52;;;5.03;;
13202;SDS011;6666;51.626;7.530;2022-11-15T04:11:33;11.87;;;5.00;;
13202;SDS011;6666;51.626;7.530;2022-11-15T04:14:21;6.37;;;4.30;;
13202;SDS011;6666;51.626;7.530;2022-11-15T04:17:08;8.13;;;5.00;;
13202;SDS011;6666;51.626;7.530;2022-11-15T04:19:55;9.00;;;4.40;;
13202;SDS011;6666;51.626;7.530;2022-11-15T04:23:09;6.38;;;4.60;;
13202;SDS011;6666;51.626;7.530;2022-11-15T04:26:16;7.97;;;4.60;;
13202;SDS011;6666;51.626;7.530;2022-11-15T04:29:04;7.45;;;4.20;;
13202;SDS011;6666;51.626;7.530;2022-11-15T04:32:10;8.15;;;3.80;;
13202;SDS011;6666;51.626;7.530;2022-11-15T04:34:56;7.45;;;3.78;;
13202;SDS011;6666;51.626;7.530;2022-11-15T04:37:43;6.50;;;4.00;;
13202;SDS011;6666;51.626;7.530;2022-11-15T04:40:33;8.90;;;3.83;;
13202;SDS011;6666;51.626;7.530;2022-11-15T04:43:21;7.20;;;4.05;;
13202;SDS011;6666;51.626;7.530;2022-11-15T04:46:08;5.20;;;3.77;;
13202;SDS011;6666;51.626;7.530;2022-11-15T04:48:57;5.10;;;3.78;;
13202;SDS011;6666;51.626;7.530;2022-11-15T04:51:43;5.40;;;3.50;;
13202;SDS011;6666;51.626;7.530;2022-11-15T04:54:30;8.63;;;3.70;;
13202;SDS011;6666;51.626;7.530;2022-11-15T04:57:16;5.50;;;4.00;;
13202;SDS011;6666;51.626;7.530;2022-11-15T05:00:05;5.35;;;3.80;;
13202;SDS011;6666;51.626;7.530;2022-11-15T05:02:53;6.47;;;4.35;;
13202;SDS011;6666;51.626;7.530;2022-11-15T05:05:59;6.20;;;3.80;;
13202;SDS011;6666;51.626;7.530;2022-11-15T05:08:46;6.28;;;3.50;;
13202;SDS011;6666;51.626;7.530;2022-11-15T05:11:32;5.63;;;3.60;;
13202;SDS011;6666;51.626;7.530;2022-11-15T05:14:20;5.72;;;4.05;;
13202;SDS011;6666;51.626;7.530;2022-11-15T05:17:06;7.10;;;3.50;;
13202;SDS011;6666;51.626;7.530;2022-11-15T05:19:53;5.70;;;3.90;;
13202;SDS011;6666;51.626;7.530;2022-11-15T05:22:41;7.40;;;4.00;;
13202;SDS011;6666;51.626;7.530;2022-11-15T05:25:27;9.32;;;4.10;;
13202;SDS011;6666;51.626;7.530;2022-11-15T05:28:14;5.82;;;4.20;;
13202;SDS011;6666;51.626;7.530;2022-11-15T05:31:01;6.90;;;3.50;;
13202;SDS011;6666;51.626;7.530;2022-11-15T05:33:49;4.45;;;3.40;;
13202;SDS011;6666;51.626;7.530;2022-11-15T05:36:37;7.32;;;3.92;;
13202;SDS011;6666;51.626;7.530;2022-11-15T05:39:26;7.95;;;3.70;;
13202;SDS011;6666;51.626;7.530;2022-11-15T05:42:13;4.60;;;3.40;;
13202;SDS011;6666;51.626;7.530;2022-11-15T05:45:01;7.47;;;3.70;;
13202;SDS011;6666;51.626;7.530;2022-11-15T05:47:51;5.85;;;4.10;;
13202;SDS011;6666;51.626;7.530;2022-11-15T05:50:41;4.72;;;3.55;;
13202;SDS011;6666;51.626;7.530;2022-11-15T05:53:31;4.97;;;3.70;;
13202;SDS011;6666;51.626;7.530;2022-11-15T05:56:20;7.53;;;3.67;;
13202;SDS011;6666;51.626;7.530;2022-11-15T05:59:08;7.90;;;3.63;;
13202;SDS011;6666;51.626;7.530;2022-11-15T06:01:55;4.10;;;3.70;;
13202;SDS011;6666;51.626;7.530;2022-11-15T06:04:42;6.53;;;4.05;;
13202;SDS011;6666;51.626;7.530;2022-11-15T06:07:29;5.45;;;3.63;;
13202;SDS011;6666;51.626;7.530;2022-11-15T06:10:17;5.22;;;3.65;;
13202;SDS011;6666;51.626;7.530;2022-11-15T06:13:05;8.00;;;4.10;;
13202;SDS011;6666;51.626;7.530;2022-11-15T06:15:54;7.38;;;3.95;;
13202;SDS011;6666;51.626;7.530;2022-11-15T06:18:41;7.15;;;3.85;;
13202;SDS011;6666;51.626;7.530;2022-11-15T06:21:28;6.13;;;4.30;;
13202;SDS011;6666;51.626;7.530;2022-11-15T06:24:15;6.53;;;3.92;;
13202;SDS011;6666;51.626;7.530;2022-11-15T06:27:01;4.75;;;3.50;;
13202;SDS011;6666;51.626;7.530;2022-11-15T06:29:49;4.82;;;3.42;;
13202;SDS011;6666;51.626;7.530;2022-11-15T06:32:36;12.10;;;7.25;;
13202;SDS011;6666;51.626;7.530;2022-11-15T06:35:23;17.20;;;10.20;;
13202;SDS011;6666;51.626;7.530;2022-11-15T06:38:10;14.65;;;7.85;;
13202;SDS011;6666;51.626;7.530;2022-11-15T06:41:00;16.23;;;9.43;;
13202;SDS011;6666;51.626;7.530;2022-11-15T06:43:47;4.95;;;3.97;;
13202;SDS011;6666;51.626;7.530;2022-11-15T06:46:36;6.27;;;3.70;;
13202;SDS011;6666;51.626;7.530;2022-11-15T06:49:23;4.68;;;3.30;;
13202;SDS011;6666;51.626;7.530;2022-11-15T06:52:09;6.40;;;3.35;;
13202;SDS011;6666;51.626;7.530;2022-11-15T06:54:56;4.40;;;3.42;;
13202;SDS011;6666;51.626;7.530;2022-11-15T06:57:47;4.63;;;3.30;;
13202;SDS011;6666;51.626;7.530;2022-11-15T07:00:34;5.88;;;3.05;;
13202;SDS011;6666;51.626;7.530;2022-11-15T07:03:22;6.95;;;3.35;;
13202;SDS011;6666;51.626;7.530;2022-11-15T07:06:09;4.25;;;2.95;;
13202;SDS011;6666;51.626;7.530;2022-11-15T07:08:56;4.78;;;2.78;;
13202;SDS011;6666;51.626;7.530;2022-11-15T07:11:43;4.88;;;3.30;;
13202;SDS011;6666;51.626;7.530;2022-11-15T07:14:30;7.28;;;3.10;;
13202;SDS011;6666;51.626;7.530;2022-11-15T07:17:16;3.92;;;3.08;;
13202;SDS011;6666;51.626;7.530;2022-11-15T07:20:05;4.50;;;3.20;;
13202;SDS011;6666;51.626;7.530;2022-11-15T07:22:58;4.57;;;3.00;;
13202;SDS011;6666;51.626;7.530;2022-11-15T07:25:46;5.57;;;3.10;;
13202;SDS011;6666;51.626;7.530;2022-11-15T07:28:32;3.40;;;2.70;;
13202;SDS011;6666;51.626;7.530;2022-11-15T07:31:20;5.55;;;3.00;;
13202;SDS011;6666;51.626;7.530;2022-11-15T07:34:07;3.67;;;2.60;;
13202;SDS011;6666;51.626;7.530;2022-11-15T07:36:55;3.92;;;2.45;;
13202;SDS011;6666;51.626;7.530;2022-11-15T07:39:42;2.75;;;2.33;;
13202;SDS011;6666;51.626;7.530;2022-11-15T07:42:30;3.10;;;2.30;;
13202;SDS011;6666;51.626;7.530;2022-11-15T07:45:39;3.17;;;2.30;;
13202;SDS011;6666;51.626;7.530;2022-11-15T07:48:27;6.00;;;2.00;;
13202;SDS011;6666;51.626;7.530;2022-11-15T07:51:27;3.00;;;1.80;;
13202;SDS011;6666;51.626;7.530;2022-11-15T07:54:15;2.25;;;1.90;;
13202;SDS011;6666;51.626;7.530;2022-11-15T07:57:02;4.03;;;1.87;;
13202;SDS011;6666;51.626;7.530;2022-11-15T07:59:51;2.80;;;1.67;;
13202;SDS011;6666;51.626;7.530;2022-11-15T08:02:38;3.03;;;1.97;;
13202;SDS011;6666;51.626;7.530;2022-11-15T08:05:26;2.80;;;1.77;;
13202;SDS011;6666;51.626;7.530;2022-11-15T08:08:12;3.45;;;1.90;;
13202;SDS011;6666;51.626;7.530;2022-11-15T08:11:00;4.28;;;2.20;;
13202;SDS011;6666;51.626;7.530;2022-11-15T08:13:47;2.28;;;1.90;;
13202;SDS011;6666;51.626;7.530;2022-11-15T08:16:34;2.03;;;1.67;;
13202;SDS011;6666;51.626;7.530;2022-11-15T08:19:21;4.20;;;1.90;;
13202;SDS011;6666;51.626;7.530;2022-11-15T08:22:08;2.63;;;1.98;;
13202;SDS011;6666;51.626;7.530;2022-11-15T08:24:54;2.00;;;1.60;;
13202;SDS011;6666;51.626;7.530;2022-11-15T08:27:43;2.05;;;1.52;;
13202;SDS011;6666;51.626;7.530;2022-11-15T08:30:30;2.40;;;1.70;;
13202;SDS011;6666;51.626;7.530;2022-11-15T08:33:21;4.20;;;1.70;;
13202;SDS011;6666;51.626;7.530;2022-11-15T08:36:10;4.05;;;1.77;;
13202;SDS011;6666;51.626;7.530;2022-11-15T08:38:59;2.50;;;1.85;;
13202;SDS011;6666;51.626;7.530;2022-11-15T08:41:46;2.53;;;1.90;;
13202;SDS011;6666;51.626;7.530;2022-11-15T08:44:34;2.50;;;1.87;;
13202;SDS011;6666;51.626;7.530;2022-11-15T08:47:21;3.58;;;1.70;;
13202;SDS011;6666;51.626;7.530;2022-11-15T08:50:08;2.00;;;1.60;;
13202;SDS011;6666;51.626;7.530;2022-11-15T08:52:55;2.38;;;1.38;;
13202;SDS011;6666;51.626;7.530;2022-11-15T08:55:42;3.65;;;1.45;;
13202;SDS011;6666;51.626;7.530;2022-11-15T08:58:29;2.95;;;1.65;;
13202;SDS011;6666;51.626;7.530;2022-11-15T09:01:19;2.90;;;1.42;;
13202;SDS011;6666;51.626;7.530;2022-11-15T09:04:06;4.10;;;1.20;;
13202;SDS011;6666;51.626;7.530;2022-11-15T09:06:54;3.20;;;1.25;;
13202;SDS011;6666;51.626;7.530;2022-11-15T09:09:41;2.30;;;1.30;;
13202;SDS011;6666;51.626;7.530;2022-11-15T09:12:28;2.00;;;1.00;;
13202;SDS011;6666;51.626;7.530;2022-11-15T09:15:15;2.90;;;1.15;;
13202;SDS011;6666;51.626;7.530;2022-11-15T09:18:03;1.10;;;0.80;;
13202;SDS011;6666;51.626;7.530;2022-11-15T09:20:50;2.88;;;1.10;;
13202;SDS011;6666;51.626;7.530;2022-11-15T09:23:41;2.67;;;1.20;;
13202;SDS011;6666;51.626;7.530;2022-11-15T09:26:28;3.25;;;0.90;;
13202;SDS011;6666;51.626;7.530;2022-11-15T09:29:14;2.70;;;1.10;;
13202;SDS011;6666;51.626;7.530;2022-11-15T09:32:01;2.00;;;1.27;;
13202;SDS011;6666;51.626;7.530;2022-11-15T09:34:49;3.50;;;1.58;;
13202;SDS011;6666;51.626;7.530;2022-11-15T09:37:37;1.40;;;0.90;;
13202;SDS011;6666;51.626;7.530;2022-11-15T09:40:23;2.58;;;1.00;;
13202;SDS011;6666;51.626;7.530;2022-11-15T09:43:22;2.28;;;1.10;;
13202;SDS011;6666;51.626;7.530;2022-11-15T09:46:15;2.40;;;1.05;;
13202;SDS011;6666;51.626;7.530;2022-11-15T09:49:08;1.50;;;0.93;;
13202;SDS011;6666;51.626;7.530;2022-11-15T09:51:54;1.70;;;0.93;;
13202;SDS011;6666;51.626;7.530;2022-11-15T09:54:25;3.00;;;0.80;;
13202;SDS011;6666;51.626;7.530;2022-11-15T09:57:16;1.40;;;1.00;;
13202;SDS011;6666;51.626;7.530;2022-11-15T09:59:52;0.97;;;0.80;;
13202;SDS011;6666;51.626;7.530;2022-11-15T10:02:52;2.10;;;0.75;;
13202;SDS011;6666;51.626;7.530;2022-11-15T10:05:37;1.55;;;1.00;;
13202;SDS011;6666;51.626;7.530;2022-11-15T10:08:12;6.80;;;1.10;;
13202;SDS011;6666;51.626;7.530;2022-11-15T10:10:52;4.30;;;1.00;;
13202;SDS011;6666;51.626;7.530;2022-11-15T10:13:44;1.23;;;0.77;;
13202;SDS011;6666;51.626;7.530;2022-11-15T10:16:17;3.40;;;0.90;;
13202;SDS011;6666;51.626;7.530;2022-11-15T10:18:59;2.35;;;0.90;;
13202;SDS011;6666;51.626;7.530;2022-11-15T10:21:37;1.58;;;0.80;;
13202;SDS011;6666;51.626;7.530;2022-11-15T10:24:17;2.80;;;0.90;;
13202;SDS011;6666;51.626;7.530;2022-11-15T10:26:51;1.40;;;0.80;;
13202;SDS011;6666;51.626;7.530;2022-11-15T10:29:19;1.85;;;0.77;;
13202;SDS011;6666;51.626;7.530;2022-11-15T10:31:52;4.70;;;0.80;;
13202;SDS011;6666;51.626;7.530;2022-11-15T10:34:21;2.33;;;0.97;;
13202;SDS011;6666;51.626;7.530;2022-11-15T10:36:54;2.45;;;1.20;;
13202;SDS011;6666;51.626;7.530;2022-11-15T10:39:24;3.42;;;1.00;;
13202;SDS011;6666;51.626;7.530;2022-11-15T10:41:53;2.80;;;1.00;;
13202;SDS011;6666;51.626;7.530;2022-11-15T10:44:24;2.70;;;0.90;;
13202;SDS011;6666;51.626;7.530;2022-11-15T10:47:16;4.07;;;1.20;;
13202;SDS011;6666;51.626;7.530;2022-11-15T10:49:53;3.40;;;1.00;;
13202;SDS011;6666;51.626;7.530;2022-11-15T10:52:29;1.70;;;0.90;;
13202;SDS011;6666;51.626;7.530;2022-11-15T10:55:02;2.50;;;1.00;;
13202;SDS011;6666;51.626;7.530;2022-11-15T10:57:35;1.25;;;1.00;;
13202;SDS011;6666;51.626;7.530;2022-11-15T11:00:06;1.50;;;0.90;;
13202;SDS011;6666;51.626;7.530;2022-11-15T11:02:56;2.78;;;1.60;;
13202;SDS011;6666;51.626;7.530;2022-11-15T11:05:27;1.88;;;1.00;;
13202;SDS011;6666;51.626;7.530;2022-11-15T11:08:05;1.40;;;0.80;;
13202;SDS011;6666;51.626;7.530;2022-11-15T11:10:55;0.95;;;0.80;;
13202;SDS011;6666;51.626;7.530;2022-11-15T11:13:29;1.80;;;0.80;;
13202;SDS011;6666;51.626;7.530;2022-11-15T11:18:49;0.93;;;0.77;;
13202;SDS011;6666;51.626;7.530;2022-11-15T11:21:31;1.20;;;0.90;;
13202;SDS011;6666;51.626;7.530;2022-11-15T11:24:12;1.55;;;0.80;;
13202;SDS011;6666;51.626;7.530;2022-11-15T11:26:49;2.10;;;0.93;;
13202;SDS011;6666;51.626;7.530;2022-11-15T11:29:33;1.83;;;0.80;;
13202;SDS011;6666;51.626;7.530;2022-11-15T11:32:16;5.70;;;0.90;;
13202;SDS011;6666;51.626;7.530;2022-11-15T11:34:58;3.45;;;1.10;;
13202;SDS011;6666;51.626;7.530;2022-11-15T11:37:35;1.77;;;0.75;;
13202;SDS011;6666;51.626;7.530;2022-11-15T11:40:12;2.10;;;1.00;;
13202;SDS011;6666;51.626;7.530;2022-11-15T11:42:54;1.70;;;0.90;;
13202;SDS011;6666;51.626;7.530;2022-11-15T11:45:30;1.95;;;0.90;;
13202;SDS011;6666;51.626;7.530;2022-11-15T11:48:20;1.45;;;0.70;;
13202;SDS011;6666;51.626;7.530;2022-11-15T11:50:58;1.27;;;0.95;;
13202;SDS011;6666;51.626;7.530;2022-11-15T11:53:35;0.90;;;0.70;;
13202;SDS011;6666;51.626;7.530;2022-11-15T11:56:14;2.90;;;1.00;;
13202;SDS011;6666;51.626;7.530;2022-11-15T11:58:48;1.80;;;0.90;;
13202;SDS011;6666;51.626;7.530;2022-11-15T12:01:22;1.40;;;0.80;;
13202;SDS011;6666;51.626;7.530;2022-11-15T12:03:54;1.30;;;0.80;;
13202;SDS011;6666;51.626;7.530;2022-11-15T12:06:27;2.20;;;0.80;;
13202;SDS011;6666;51.626;7.530;2022-11-15T12:09:01;1.67;;;0.63;;
13202;SDS011;6666;51.626;7.530;2022-11-15T12:11:35;5.50;;;0.90;;
13202;SDS011;6666;51.626;7.530;2022-11-15T12:14:13;5.20;;;0.90;;
13202;SDS011;6666;51.626;7.530;2022-11-15T12:16:49;5.03;;;0.90;;
13202;SDS011;6666;51.626;7.530;2022-11-15T12:19:17;6.70;;;0.82;;
13202;SDS011;6666;51.626;7.530;2022-11-15T12:21:47;1.30;;;0.80;;
13202;SDS011;6666;51.626;7.530;2022-11-15T12:24:23;2.90;;;0.80;;
13202;SDS011;6666;51.626;7.530;2022-11-15T12:26:57;1.20;;;0.70;;
13202;SDS011;6666;51.626;7.530;2022-11-15T12:29:34;1.80;;;0.60;;
13202;SDS011;6666;51.626;7.530;2022-11-15T12:32:06;1.60;;;0.70;;
13202;SDS011;6666;51.626;7.530;2022-11-15T12:34:46;7.80;;;0.90;;
13202;SDS011;6666;51.626;7.530;2022-11-15T12:37:32;1.30;;;0.90;;
13202;SDS011;6666;51.626;7.530;2022-11-15T12:40:23;1.38;;;0.70;;
13202;SDS011;6666;51.626;7.530;2022-11-15T12:45:57;4.90;;;0.60;;
13202;SDS011;6666;51.626;7.530;2022-11-15T12:58:10;1.48;;;0.70;;
13202;SDS011;6666;51.626;7.530;2022-11-15T13:00:54;2.20;;;0.70;;
13202;SDS011;6666;51.626;7.530;2022-11-15T13:03:25;2.63;;;0.70;;
13202;SDS011;6666;51.626;7.530;2022-11-15T13:05:58;2.40;;;0.90;;
13202;SDS011;6666;51.626;7.530;2022-11-15T13:08:38;1.43;;;0.60;;
13202;SDS011;6666;51.626;7.530;2022-11-15T13:17:28;2.93;;;0.80;;
13202;SDS011;6666;51.626;7.530;2022-11-15T13:20:18;3.00;;;0.80;;
13202;SDS011;6666;51.626;7.530;2022-11-15T13:22:52;3.73;;;1.00;;
13202;SDS011;6666;51.626;7.530;2022-11-15T13:28:32;2.73;;;1.50;;
13202;SDS011;6666;51.626;7.530;2022-11-15T13:31:13;4.00;;;1.17;;
13202;SDS011;6666;51.626;7.530;2022-11-15T13:34:01;2.13;;;0.90;;
13202;SDS011;6666;51.626;7.530;2022-11-15T13:37:00;4.95;;;2.30;;
13202;SDS011;6666;51.626;7.530;2022-11-15T13:39:30;1.35;;;0.73;;
13202;SDS011;6666;51.626;7.530;2022-11-15T13:42:00;3.28;;;1.00;;
13202;SDS011;6666;51.626;7.530;2022-11-15T13:44:28;4.10;;;1.20;;
13202;SDS011;6666;51.626;7.530;2022-11-15T13:47:02;1.40;;;1.30;;
13202;SDS011;6666;51.626;7.530;2022-11-15T13:49:33;3.20;;;1.20;;
13202;SDS011;6666;51.626;7.530;2022-11-15T13:52:03;3.40;;;1.20;;
13202;SDS011;6666;51.626;7.530;2022-11-15T13:54:34;2.50;;;1.10;;
13202;SDS011;6666;51.626;7.530;2022-11-15T13:57:08;1.80;;;1.00;;
13202;SDS011;6666;51.626;7.530;2022-11-15T13:59:43;4.97;;;1.80;;
13202;SDS011;6666;51.626;7.530;2022-11-15T14:02:15;3.60;;;0.90;;
13202;SDS011;6666;51.626;7.530;2022-11-15T14:04:48;2.63;;;0.80;;
13202;SDS011;6666;51.626;7.530;2022-11-15T14:07:19;1.93;;;1.10;;
13202;SDS011;6666;51.626;7.530;2022-11-15T14:09:48;3.05;;;0.80;;
13202;SDS011;6666;51.626;7.530;2022-11-15T14:12:27;2.22;;;1.30;;
13202;SDS011;6666;51.626;7.530;2022-11-15T14:14:58;2.92;;;1.13;;
13202;SDS011;6666;51.626;7.530;2022-11-15T14:17:36;1.60;;;0.90;;
13202;SDS011;6666;51.626;7.530;2022-11-15T14:20:24;1.60;;;0.90;;
13202;SDS011;6666;51.626;7.530;2022-11-15T14:22:57;1.58;;;0.90;;
13202;SDS011;6666;51.626;7.530;2022-11-15T14:25:27;2.80;;;1.10;;
13202;SDS011;6666;51.626;7.530;2022-11-15T14:28:11;3.25;;;2.17;;
13202;SDS011;6666;51.626;7.530;2022-11-15T14:30:43;6.88;;;1.20;;
13202;SDS011;6666;51.626;7.530;2022-11-15T14:33:21;4.25;;;2.22;;
13202;SDS011;6666;51.626;7.530;2022-11-15T14:35:52;1.90;;;1.20;;
13202;SDS011;6666;51.626;7.530;2022-11-15T14:38:22;1.52;;;0.90;;
13202;SDS011;6666;51.626;7.530;2022-11-15T14:40:50;1.63;;;1.00;;
13202;SDS011;6666;51.626;7.530;2022-11-15T14:43:20;3.97;;;1.00;;
13202;SDS011;6666;51.626;7.530;2022-11-15T14:45:48;2.80;;;1.13;;
13202;SDS011;6666;51.626;7.530;2022-11-15T14:48:16;3.70;;;1.20;;
13202;SDS011;6666;51.626;7.530;2022-11-15T14:50:44;4.27;;;1.17;;
13202;SDS011;6666;51.626;7.530;2022-11-15T14:53:15;4.15;;;1.48;;
13202;SDS011;6666;51.626;7.530;2022-11-15T14:55:44;1.80;;;1.05;;
13202;SDS011;6666;51.626;7.530;2022-11-15T14:58:12;1.40;;;0.80;;
13202;SDS011;6666;51.626;7.530;2022-11-15T15:00:40;3.50;;;1.10;;
13202;SDS011;6666;51.626;7.530;2022-11-15T15:03:09;3.38;;;1.42;;
13202;SDS011;6666;51.626;7.530;2022-11-15T15:05:37;1.95;;;1.33;;
13202;SDS011;6666;51.626;7.530;2022-11-15T15:08:07;3.70;;;1.02;;
13202;SDS011;6666;51.626;7.530;2022-11-15T15:10:38;1.60;;;1.23;;
13202;SDS011;6666;51.626;7.530;2022-11-15T15:13:10;1.75;;;1.02;;
13202;SDS011;6666;51.626;7.530;2022-11-15T15:15:44;3.00;;;1.00;;
13202;SDS011;6666;51.626;7.530;2022-11-15T15:18:13;2.60;;;1.20;;
13202;SDS011;6666;51.626;7.530;2022-11-15T15:20:42;3.47;;;1.48;;
13202;SDS011;6666;51.626;7.530;2022-11-15T15:23:15;1.77;;;1.30;;
13202;SDS011;6666;51.626;7.530;2022-11-15T15:25:46;2.72;;;1.25;;
13202;SDS011;6666;51.626;7.530;2022-11-15T15:28:16;1.90;;;1.00;;
13202;SDS011;6666;51.626;7.530;2022-11-15T15:30:44;2.10;;;1.10;;
13202;SDS011;6666;51.626;7.530;2022-11-15T15:33:12;2.00;;;1.30;;
13202;SDS011;6666;51.626;7.530;2022-11-15T15:35:40;3.45;;;1.60;;
13202;SDS011;6666;51.626;7.530;2022-11-15T15:38:10;6.20;;;1.50;;
13202;SDS011;6666;51.626;7.530;2022-11-15T15:40:39;5.57;;;2.10;;
13202;SDS011;6666;51.626;7.530;2022-11-15T15:43:09;6.50;;;2.00;;
13202;SDS011;6666;51.626;7.530;2022-11-15T15:45:37;8.20;;;3.50;;
13202;SDS011;6666;51.626;7.530;2022-11-15T15:48:09;7.60;;;2.67;;
13202;SDS011;6666;51.626;7.530;2022-11-15T15:50:39;5.43;;;2.20;;
13202;SDS011;6666;51.626;7.530;2022-11-15T15:53:09;4.47;;;1.80;;
13202;SDS011;6666;51.626;7.530;2022-11-15T15:55:39;8.00;;;2.20;;
13202;SDS011;6666;51.626;7.530;2022-11-15T15:58:08;7.40;;;2.40;;
13202;SDS011;6666;51.626;7.530;2022-11-15T16:00:36;7.80;;;2.63;;
13202;SDS011;6666;51.626;7.530;2022-11-15T16:03:05;4.90;;;2.33;;
13202;SDS011;6666;51.626;7.530;2022-11-15T16:05:33;7.22;;;2.47;;
13202;SDS011;6666;51.626;7.530;2022-11-15T16:08:01;8.18;;;2.72;;
13202;SDS011;6666;51.626;7.530;2022-11-15T16:10:31;6.60;;;2.60;;
13202;SDS011;6666;51.626;7.530;2022-11-15T16:13:00;7.75;;;2.40;;
13202;SDS011;6666;51.626;7.530;2022-11-15T16:15:30;9.23;;;2.45;;
13202;SDS011;6666;51.626;7.530;2022-11-15T16:17:59;6.95;;;2.20;;
13202;SDS011;6666;51.626;7.530;2022-11-15T16:20:35;6.13;;;2.60;;
13202;SDS011;6666;51.626;7.530;2022-11-15T16:23:06;5.57;;;2.72;;
13202;SDS011;6666;51.626;7.530;2022-11-15T16:25:39;8.23;;;2.90;;
13202;SDS011;6666;51.626;7.530;2022-11-15T16:28:16;10.17;;;3.33;;
13202;SDS011;6666;51.626;7.530;2022-11-15T16:30:59;6.05;;;2.30;;
13202;SDS011;6666;51.626;7.530;2022-11-15T16:33:32;5.23;;;2.20;;
13202;SDS011;6666;51.626;7.530;2022-11-15T16:36:00;7.82;;;2.70;;
13202;SDS011;6666;51.626;7.530;2022-11-15T16:38:29;5.43;;;2.42;;
13202;SDS011;6666;51.626;7.530;2022-11-15T16:40:58;7.00;;;2.57;;
13202;SDS011;6666;51.626;7.530;2022-11-15T16:43:26;4.00;;;2.50;;
13202;SDS011;6666;51.626;7.530;2022-11-15T16:45:56;3.90;;;2.35;;
13202;SDS011;6666;51.626;7.530;2022-11-15T16:48:24;6.32;;;3.28;;
13202;SDS011;6666;51.626;7.530;2022-11-15T16:50:54;6.90;;;3.00;;
13202;SDS011;6666;51.626;7.530;2022-11-15T16:53:23;10.82;;;3.25;;
13202;SDS011;6666;51.626;7.530;2022-11-15T16:55:52;13.52;;;4.30;;
13202;SDS011;6666;51.626;7.530;2022-11-15T16:58:22;8.80;;;3.55;;
13202;SDS011;6666;51.626;7.530;2022-11-15T17:00:51;9.77;;;3.30;;
13202;SDS011;6666;51.626;7.530;2022-11-15T17:03:21;11.88;;;4.40;;
13202;SDS011;6666;51.626;7.530;2022-11-15T17:05:50;12.18;;;3.90;;